Barkman, Texas
Current Conditions -  °F | °C
As of 10:53 PM on Thursday 30 Oct 2014 (Local Time) from KTXK Reporting Station
Clear Clear  
Wind Chill: 56°   Ceiling: Unl
Heat Index: 56°   Visibility: 10mi
Dew Point: 47°   Wind: 5mph
Humidity: 72%   Direction: 220°SW
Pressure: 30.09"   Gusts: NA
Location:  33.474°N, 94.2882°W
Report Text: KTXK 310353Z AUTO 22004KT 10SM CLR 13/08 A3009 RMK AO2 SLP187 T01330083
Loading
Personal Weather Stations






























Interactive Weather Map
Tropical Storm Tracking
New forecast layout! Learn more

10-Day Weather Forecast

Advertisements
Track Severe Weather on mobile